If you wish to contribute or participate in the discussions about articles you are invited to join SKYbrary as a registered user

 Actions

MacDill Air Force Base

From SKYbrary Wiki

KMCF
Airport
ICAO: KMCF
Summary
Name MacDill Air Force Base
Region North America
Territory United States US.gif
Location Tampa, Florida
Serving
Coordinates 27° 50' 57.00" N, 82° 31' 16.99" W
Runways
Designator Length Width Surface ROPS
4/22 3481 m11,420.604 ft
46 m150.919 ft
ASP yes/yes


METAR
Observation KMCF 181656Z AUTO 12004KT 10SM CLR 31/22 A2998 RMK AO2 SLP155 T03130220 FZRANO $
Station Macdill Air Force Base, Fl.
Date/Time 18 September 2019 16:56:00
Wind direction 120°
Wind speed 04 kts
Lowest cloud amount n/a
Temperature 31.3°C
Dew point 22°C
Humidity 57%
QNH hPa
Weather condition n/a

WX
Tag(s) Cumulonimbus
Tropical Revolving Storm

MacDill Air Force Base

ICAO: KMCF IATA: MCF

Description

MacDill Air Force Base is a United States Air Force installation located approximately 6 km3.24 nm
6,000 m
19,685.039 ft
south-southwest of downtown Tampa, Florida.

Climatology

Humid “subtropical” climate (Köppen climate classification Cfa) - characterized by hot, humid summers and cool winters. Significant amounts of precipitation occur in all seasons in most areas.

Maps

Terrain

Loading map...

Airport Layout

Loading map...


Accidents & Serious Incidents at or in vicinity of KMCF

None on SKYbrary